createdAt,value
2022-12-22T00:01:30.936Z,72.20
2022-12-22T00:04:17.471Z,73.51
2022-12-22T00:07:03.717Z,73.46
2022-12-22T00:09:50.716Z,73.62
2022-12-22T00:12:38.180Z,73.16
2022-12-22T00:15:25.664Z,72.53
2022-12-22T00:18:11.537Z,72.99
2022-12-22T00:20:57.719Z,72.84
2022-12-22T00:23:43.653Z,72.15
2022-12-22T00:26:30.012Z,72.68
2022-12-22T00:29:16.085Z,71.32
2022-12-22T00:32:02.843Z,71.59
2022-12-22T00:34:56.649Z,72.12
2022-12-22T00:37:51.533Z,72.59
2022-12-22T00:40:40.662Z,71.65
2022-12-22T00:43:26.571Z,72.32
2022-12-22T00:46:13.194Z,72.68
2022-12-22T00:49:01.941Z,72.17
2022-12-22T00:51:49.403Z,71.71
2022-12-22T00:54:37.075Z,72.12
2022-12-22T00:57:23.440Z,71.91
2022-12-22T01:00:17.428Z,72.74
2022-12-22T01:03:03.679Z,72.68
2022-12-22T01:05:50.352Z,73.01
2022-12-22T01:08:36.748Z,72.53
2022-12-22T01:11:23.036Z,70.12
2022-12-22T01:14:09.015Z,71.36
2022-12-22T01:16:54.901Z,71.66
2022-12-22T01:19:41.144Z,71.26
2022-12-22T01:22:31.207Z,70.91
2022-12-22T01:25:17.053Z,71.26
2022-12-22T01:28:03.417Z,72.07
2022-12-22T01:30:49.770Z,72.38
2022-12-22T01:33:35.574Z,70.93
2022-12-22T01:36:21.954Z,71.89
2022-12-22T01:39:07.792Z,71.60
2022-12-22T01:41:54.087Z,71.88
2022-12-22T01:44:39.790Z,72.37
2022-12-22T01:47:47.665Z,70.89
2022-12-22T01:50:37.655Z,71.58
2022-12-22T01:53:27.681Z,71.34
2022-12-22T01:56:15.087Z,72.14
2022-12-22T01:59:04.926Z,71.41
2022-12-22T02:01:51.734Z,72.42
2022-12-22T02:04:41.622Z,71.55
2022-12-22T02:07:55.211Z,70.77
2022-12-22T02:11:06.082Z,71.35
2022-12-22T02:13:54.882Z,71.19
2022-12-22T02:17:05.602Z,71.45
2022-12-22T02:20:10.872Z,70.39
2022-12-22T02:23:29.028Z,71.16
2022-12-22T02:26:34.115Z,70.66
2022-12-22T02:29:23.153Z,71.26
2022-12-22T02:32:09.933Z,70.86
2022-12-22T02:34:56.074Z,71.01
2022-12-22T02:38:02.644Z,70.67
2022-12-22T02:41:34.394Z,72.04
2022-12-22T02:44:51.182Z,71.56
2022-12-22T02:47:43.241Z,72.42
2022-12-22T02:50:44.358Z,72.17
2022-12-22T02:53:33.189Z,71.52
2022-12-22T02:56:23.076Z,71.97
2022-12-22T02:59:09.385Z,70.41
2022-12-22T03:01:57.243Z,71.22
2022-12-22T03:04:43.118Z,72.68
2022-12-22T03:07:29.473Z,72.36
2022-12-22T03:10:16.591Z,72.16
2022-12-22T03:13:02.994Z,72.27
2022-12-22T03:15:48.878Z,72.10
2022-12-22T03:18:34.876Z,72.59
2022-12-22T03:21:20.940Z,73.56
2022-12-22T03:24:06.882Z,73.04
2022-12-22T03:26:34.491Z,73.64
2022-12-22T03:29:01.989Z,74.84
2022-12-22T03:31:29.594Z,75.49
2022-12-22T03:33:57.140Z,76.03
2022-12-22T03:36:24.919Z,76.22
2022-12-22T03:38:52.517Z,76.32
2022-12-22T03:41:38.661Z,76.79
2022-12-22T03:44:24.599Z,77.37
2022-12-22T03:46:52.252Z,76.41
2022-12-22T03:49:20.080Z,77.65
2022-12-22T03:51:49.576Z,78.22
2022-12-22T03:54:27.007Z,78.36
2022-12-22T03:56:54.678Z,77.60
2022-12-22T03:59:22.352Z,78.68
2022-12-22T04:01:53.287Z,78.78
2022-12-22T04:04:23.903Z,79.96
2022-12-22T04:06:52.810Z,79.75
2022-12-22T04:09:22.243Z,79.30
2022-12-22T04:12:08.078Z,79.91
2022-12-22T04:14:36.066Z,79.20
2022-12-22T04:17:04.948Z,79.22
2022-12-22T04:19:33.360Z,79.84
2022-12-22T04:22:01.669Z,80.30
2022-12-22T04:24:29.208Z,79.74
2022-12-22T04:26:56.826Z,79.35
2022-12-22T04:29:24.520Z,79.81
2022-12-22T04:31:52.104Z,79.79
2022-12-22T04:34:19.642Z,79.39
2022-12-22T04:36:47.180Z,79.27
2022-12-22T04:39:14.744Z,79.63
2022-12-22T04:41:42.324Z,80.03
2022-12-22T04:44:09.842Z,80.38
2022-12-22T04:46:37.386Z,80.44
2022-12-22T04:49:05.051Z,80.96
2022-12-22T04:51:32.557Z,80.67
2022-12-22T04:54:00.220Z,80.68
2022-12-22T04:56:27.748Z,80.28
2022-12-22T04:58:55.293Z,80.73
2022-12-22T05:01:24.458Z,80.79
2022-12-22T05:03:52.133Z,80.78
2022-12-22T05:06:19.960Z,80.51
2022-12-22T05:08:47.452Z,80.07
2022-12-22T05:11:15.088Z,79.56
2022-12-22T05:13:42.708Z,79.98
2022-12-22T05:16:12.874Z,79.86
2022-12-22T05:18:42.318Z,79.66
2022-12-22T05:21:15.709Z,79.58
2022-12-22T05:23:44.051Z,79.59
2022-12-22T05:26:12.413Z,79.49
2022-12-22T05:28:41.038Z,79.48
2022-12-22T05:31:16.604Z,79.25
2022-12-22T05:33:44.667Z,80.02
2022-12-22T05:36:12.271Z,80.28
2022-12-22T05:38:40.377Z,79.95
2022-12-22T05:41:08.528Z,80.18
2022-12-22T05:43:36.569Z,80.23
2022-12-22T05:46:09.983Z,79.77
2022-12-22T05:48:39.870Z,79.92
2022-12-22T05:51:09.961Z,80.01
2022-12-22T05:53:38.635Z,81.34
2022-12-22T05:56:07.420Z,81.11
2022-12-22T05:58:37.214Z,81.24
2022-12-22T06:01:05.467Z,82.66
2022-12-22T06:03:33.107Z,81.72
2022-12-22T06:06:00.813Z,80.75
2022-12-22T06:08:28.649Z,81.36
2022-12-22T06:10:58.404Z,81.65
2022-12-22T06:13:26.477Z,82.44
2022-12-22T06:15:54.179Z,82.74
2022-12-22T06:18:22.895Z,82.60
2022-12-22T06:20:53.584Z,82.97
2022-12-22T06:23:22.580Z,83.01
2022-12-22T06:25:55.185Z,82.46
2022-12-22T06:28:22.927Z,82.46
2022-12-22T06:30:50.529Z,82.64
2022-12-22T06:33:18.120Z,82.67
2022-12-22T06:35:50.900Z,82.69
2022-12-22T06:38:24.912Z,82.30
2022-12-22T06:40:52.448Z,83.20
2022-12-22T06:43:19.886Z,82.65
2022-12-22T06:45:47.442Z,82.66
2022-12-22T06:48:15.102Z,82.52
2022-12-22T06:50:42.852Z,82.47
2022-12-22T06:53:11.260Z,82.77
2022-12-22T06:55:39.035Z,82.74
2022-12-22T06:58:07.031Z,82.57
2022-12-22T07:00:34.939Z,82.65
2022-12-22T07:03:02.852Z,82.68
2022-12-22T07:05:32.043Z,83.04
2022-12-22T07:08:05.894Z,82.94
2022-12-22T07:10:54.916Z,82.86
2022-12-22T07:13:24.215Z,82.92
2022-12-22T07:16:00.255Z,82.90
2022-12-22T07:18:34.279Z,82.21
2022-12-22T07:21:03.400Z,82.11
2022-12-22T07:23:31.354Z,82.07
2022-12-22T07:25:59.125Z,82.00
2022-12-22T07:28:26.929Z,81.84
2022-12-22T07:30:55.150Z,82.36
2022-12-22T07:33:23.463Z,81.86
2022-12-22T07:36:05.351Z,82.53
2022-12-22T07:38:39.336Z,82.09
2022-12-22T07:41:28.565Z,81.08
2022-12-22T07:43:58.834Z,80.63
2022-12-22T07:46:28.619Z,81.23
2022-12-22T07:49:15.374Z,81.11
2022-12-22T07:51:43.998Z,81.54
2022-12-22T07:54:14.344Z,80.89
2022-12-22T07:56:42.681Z,79.68
2022-12-22T07:59:10.783Z,79.16
2022-12-22T08:01:39.977Z,78.15
2022-12-22T08:04:11.973Z,77.87
2022-12-22T08:06:39.963Z,77.38
2022-12-22T08:09:09.524Z,76.65
2022-12-22T08:11:36.986Z,76.74
2022-12-22T08:14:04.775Z,75.08
2022-12-22T08:16:32.382Z,74.41
2022-12-22T08:19:00.136Z,73.38
2022-12-22T08:21:27.691Z,72.77
2022-12-22T08:23:55.457Z,73.09
2022-12-22T08:26:36.588Z,75.02
2022-12-22T08:29:16.393Z,75.21
2022-12-22T08:31:44.697Z,74.38
2022-12-22T08:34:16.409Z,73.94
2022-12-22T08:36:50.916Z,74.77
2022-12-22T08:39:20.981Z,73.84
2022-12-22T08:41:51.645Z,75.37
2022-12-22T08:44:30.070Z,75.02
2022-12-22T08:46:59.090Z,76.28
2022-12-22T08:49:26.928Z,76.58
2022-12-22T08:51:54.776Z,77.40
2022-12-22T08:54:23.057Z,76.21
2022-12-22T08:56:51.094Z,76.09
2022-12-22T08:59:19.185Z,75.79
2022-12-22T09:01:50.726Z,76.31
2022-12-22T09:04:21.135Z,75.26
2022-12-22T09:06:51.383Z,74.86
2022-12-22T09:09:19.562Z,74.74
2022-12-22T09:11:47.357Z,76.26
2022-12-22T09:14:15.400Z,75.38
2022-12-22T09:16:42.995Z,75.09
2022-12-22T09:19:10.737Z,74.05
2022-12-22T09:21:38.481Z,74.74
2022-12-22T09:24:07.613Z,75.11
2022-12-22T09:26:35.325Z,75.24
2022-12-22T09:29:04.266Z,74.73
2022-12-22T09:31:32.888Z,75.37
2022-12-22T09:34:01.039Z,73.97
2022-12-22T09:36:31.738Z,74.93
2022-12-22T09:39:04.554Z,75.54
2022-12-22T09:41:50.850Z,75.08
2022-12-22T09:44:30.292Z,75.45
2022-12-22T09:47:01.767Z,74.88
2022-12-22T09:49:30.133Z,75.60
2022-12-22T09:52:02.580Z,75.58
2022-12-22T09:54:30.842Z,76.05
2022-12-22T09:56:58.677Z,76.56
2022-12-22T09:59:28.449Z,76.11
2022-12-22T10:01:59.820Z,75.82
2022-12-22T10:04:36.536Z,75.44
2022-12-22T10:07:03.911Z,72.30
2022-12-22T10:09:50.674Z,71.89
2022-12-22T10:12:25.344Z,67.91
2022-12-22T10:14:54.456Z,65.13
2022-12-22T10:17:28.081Z,63.40
2022-12-22T10:20:21.709Z,64.55
2022-12-22T10:22:55.689Z,66.24
2022-12-22T10:26:00.397Z,65.82
2022-12-22T10:28:31.930Z,66.07
2022-12-22T10:31:31.275Z,67.18
2022-12-22T10:34:18.349Z,67.50
2022-12-22T10:36:50.773Z,68.03
2022-12-22T10:39:26.077Z,67.15
2022-12-22T10:41:56.412Z,66.92
2022-12-22T10:44:28.279Z,64.67
2022-12-22T10:47:24.180Z,62.61
2022-12-22T10:52:32.253Z,60.99
2022-12-22T10:55:20.445Z,52.24
2022-12-22T10:57:49.544Z,48.68
2022-12-22T11:00:27.158Z,48.30
2022-12-22T11:02:58.013Z,44.51
2022-12-22T11:05:26.345Z,46.09
2022-12-22T11:07:55.238Z,43.64
2022-12-22T11:10:41.530Z,45.11
2022-12-22T11:13:36.961Z,49.88
2022-12-22T11:16:17.727Z,53.32
2022-12-22T11:19:03.525Z,55.61
2022-12-22T11:22:18.758Z,57.14
2022-12-22T11:24:48.978Z,57.92
2022-12-22T11:27:45.779Z,60.29
2022-12-22T11:30:20.917Z,61.73
2022-12-22T11:33:07.367Z,64.51
2022-12-22T11:35:56.644Z,65.22
2022-12-22T11:38:24.134Z,64.93
2022-12-22T11:41:04.571Z,65.83
2022-12-22T11:43:46.949Z,66.94
2022-12-22T11:46:25.607Z,67.58
2022-12-22T11:48:55.875Z,66.24
2022-12-22T11:52:01.090Z,67.68
2022-12-22T11:54:40.195Z,67.69
2022-12-22T11:57:13.826Z,67.66
2022-12-22T12:00:02.729Z,68.06
2022-12-22T12:03:16.796Z,69.52
2022-12-22T12:05:59.422Z,68.10
2022-12-22T12:08:42.676Z,67.76
2022-12-22T12:11:25.537Z,68.97
2022-12-22T12:14:05.510Z,69.63
2022-12-22T12:16:39.275Z,70.97
2022-12-22T12:19:24.763Z,69.08
2022-12-22T12:22:38.584Z,69.87
2022-12-22T12:25:40.067Z,70.09
2022-12-22T12:28:26.395Z,69.07
2022-12-22T12:30:58.027Z,70.19
2022-12-22T12:33:46.815Z,70.79
2022-12-22T12:36:16.970Z,70.77
2022-12-22T12:39:08.916Z,71.60
2022-12-22T12:41:48.005Z,71.17
2022-12-22T12:44:19.082Z,71.76
2022-12-22T12:46:57.201Z,72.22
2022-12-22T12:49:36.744Z,71.43
2022-12-22T12:52:14.116Z,71.27
2022-12-22T12:54:43.698Z,71.73
2022-12-22T12:57:46.393Z,71.98
2022-12-22T13:00:44.990Z,72.52
2022-12-22T13:03:52.955Z,71.86
2022-12-22T13:06:49.358Z,71.24
2022-12-22T13:09:49.754Z,72.96
2022-12-22T13:12:49.111Z,72.63
2022-12-22T13:15:37.694Z,71.38
2022-12-22T13:18:34.118Z,68.69
2022-12-22T13:24:28.987Z,70.49
2022-12-22T13:27:03.621Z,68.76
2022-12-22T13:29:41.870Z,69.94
2022-12-22T13:32:33.353Z,73.54
2022-12-22T13:37:59.681Z,74.39
2022-12-22T13:40:40.812Z,75.44
2022-12-22T13:43:17.983Z,75.67
2022-12-22T13:45:48.517Z,75.57
2022-12-22T13:48:24.692Z,75.25
2022-12-22T13:51:01.555Z,76.01
2022-12-22T13:56:46.853Z,76.59
2022-12-22T13:59:27.757Z,76.69
2022-12-22T14:02:16.199Z,77.95
2022-12-22T14:05:10.870Z,77.87
2022-12-22T14:07:38.561Z,77.47
2022-12-22T14:10:07.486Z,77.64
2022-12-22T14:12:41.980Z,78.21
2022-12-22T14:15:18.010Z,79.42
2022-12-22T14:17:52.292Z,78.39
2022-12-22T14:20:29.296Z,79.24
2022-12-22T14:23:05.338Z,79.40
2022-12-22T14:25:38.011Z,80.40
2022-12-22T14:28:12.041Z,81.08
2022-12-22T14:30:45.074Z,81.80
2022-12-22T14:33:27.954Z,81.53
2022-12-22T14:36:04.661Z,81.72
2022-12-22T14:38:40.848Z,81.66
2022-12-22T14:41:37.699Z,81.06
2022-12-22T14:44:05.508Z,81.00
2022-12-22T14:46:38.545Z,81.41
2022-12-22T14:49:16.697Z,80.19
2022-12-22T14:51:59.079Z,80.71
2022-12-22T14:54:29.100Z,80.30
2022-12-22T14:57:08.497Z,80.00
2022-12-22T14:59:59.237Z,80.11
2022-12-22T15:02:39.009Z,80.60
2022-12-22T15:05:28.466Z,80.60
2022-12-22T15:08:07.229Z,80.44
2022-12-22T15:10:43.337Z,80.53
2022-12-22T15:13:13.401Z,81.15
2022-12-22T15:15:40.898Z,81.08
2022-12-22T15:18:14.257Z,81.50
2022-12-22T15:20:42.629Z,81.56
2022-12-22T15:23:17.076Z,81.90
2022-12-22T15:25:45.682Z,82.28
2022-12-22T15:28:13.403Z,80.41
2022-12-22T15:30:41.537Z,81.16
2022-12-22T15:33:14.979Z,81.80
2022-12-22T15:35:44.147Z,81.64
2022-12-22T15:38:20.672Z,82.08
2022-12-22T15:40:49.176Z,82.41
2022-12-22T15:43:53.548Z,82.29
2022-12-22T15:46:06.208Z,82.13
2022-12-22T15:48:36.288Z,82.56
2022-12-22T15:51:07.664Z,82.37
2022-12-22T15:53:36.877Z,81.92
2022-12-22T15:56:04.927Z,82.42
2022-12-22T15:58:36.180Z,82.62
2022-12-22T16:01:04.151Z,82.60
2022-12-22T16:03:32.028Z,83.14
2022-12-22T16:06:00.744Z,83.75
2022-12-22T16:08:37.796Z,83.36
2022-12-22T16:11:07.491Z,82.99
2022-12-22T16:13:37.007Z,83.21
2022-12-22T16:16:05.154Z,83.31
2022-12-22T16:18:32.943Z,83.63
2022-12-22T16:21:07.953Z,83.44
2022-12-22T16:23:36.809Z,83.45
2022-12-22T16:26:05.182Z,83.93
2022-12-22T16:28:33.340Z,83.98
2022-12-22T16:31:01.419Z,84.33
2022-12-22T16:33:29.180Z,84.35
2022-12-22T16:35:56.685Z,84.30
2022-12-22T16:38:24.229Z,84.59
2022-12-22T16:40:53.437Z,85.07
2022-12-22T16:46:15.068Z,84.91
2022-12-22T16:48:49.747Z,85.36
2022-12-22T16:51:38.805Z,84.26
2022-12-22T16:54:06.227Z,84.71
2022-12-22T16:56:34.916Z,84.27
2022-12-22T16:59:04.652Z,84.69
2022-12-22T17:01:40.172Z,84.50
2022-12-22T17:04:12.161Z,84.15
2022-12-22T17:06:40.205Z,84.23
2022-12-22T17:09:15.970Z,84.43
2022-12-22T17:11:46.189Z,83.70
2022-12-22T17:14:37.720Z,84.47
2022-12-22T17:17:05.287Z,83.86
2022-12-22T17:19:32.831Z,84.66
2022-12-22T17:22:00.953Z,84.76
2022-12-22T17:24:29.040Z,84.28
2022-12-22T17:27:01.087Z,84.73
2022-12-22T17:29:30.024Z,84.48
2022-12-22T17:31:57.476Z,84.47
2022-12-22T17:34:25.038Z,84.19
2022-12-22T17:36:52.640Z,84.16
2022-12-22T17:39:21.999Z,83.90
2022-12-22T17:41:56.433Z,84.37
2022-12-22T17:44:26.743Z,84.38
2022-12-22T17:46:54.497Z,84.25
2022-12-22T17:49:22.781Z,84.98
2022-12-22T17:51:50.629Z,84.55
2022-12-22T17:54:23.775Z,84.86
2022-12-22T17:56:54.001Z,85.02
2022-12-22T17:59:21.479Z,84.91
2022-12-22T18:01:49.225Z,85.18
2022-12-22T18:04:16.969Z,85.36
2022-12-22T18:06:44.625Z,84.69
2022-12-22T18:09:20.902Z,84.83
2022-12-22T18:11:50.163Z,84.98
2022-12-22T18:14:19.460Z,85.29
2022-12-22T18:16:47.055Z,85.37
2022-12-22T18:19:14.668Z,85.29
2022-12-22T18:21:43.926Z,85.45
2022-12-22T18:24:19.241Z,85.20
2022-12-22T18:26:47.532Z,85.39
2022-12-22T18:29:16.114Z,85.17
2022-12-22T18:31:44.284Z,85.38
2022-12-22T18:34:12.540Z,85.96
2022-12-22T18:36:42.601Z,86.61
2022-12-22T18:39:18.991Z,85.94
2022-12-22T18:41:46.929Z,85.75
2022-12-22T18:44:18.654Z,85.60
2022-12-22T18:46:46.861Z,85.61
2022-12-22T18:49:15.490Z,85.38
2022-12-22T18:51:44.730Z,85.22
2022-12-22T18:54:27.270Z,85.19
2022-12-22T18:56:55.739Z,85.46
2022-12-22T18:59:26.008Z,85.74
2022-12-22T19:02:01.991Z,86.11
2022-12-22T19:04:29.898Z,84.95
2022-12-22T19:06:57.778Z,85.62
2022-12-22T19:09:26.996Z,85.27
2022-12-22T19:11:54.550Z,85.11
2022-12-22T19:14:22.643Z,84.96
2022-12-22T19:16:50.215Z,85.51
2022-12-22T19:19:19.332Z,85.79
2022-12-22T19:21:48.704Z,85.52
2022-12-22T19:24:16.331Z,84.72
2022-12-22T19:26:43.868Z,84.75
2022-12-22T19:29:14.162Z,85.35
2022-12-22T19:31:43.601Z,84.65
2022-12-22T19:34:17.008Z,85.02
2022-12-22T19:36:44.576Z,85.10
2022-12-22T19:39:12.162Z,85.36
2022-12-22T19:41:50.045Z,85.23
2022-12-22T19:44:19.547Z,85.35
2022-12-22T19:46:48.526Z,85.43
2022-12-22T19:49:22.016Z,85.18
2022-12-22T19:51:49.998Z,84.95
2022-12-22T19:54:17.661Z,84.99
2022-12-22T19:56:52.582Z,84.94
2022-12-22T19:59:38.739Z,84.95
2022-12-22T20:02:30.243Z,85.62
2022-12-22T20:04:58.870Z,85.21
2022-12-22T20:07:29.595Z,85.48
2022-12-22T20:09:58.966Z,85.80
2022-12-22T20:12:31.740Z,85.54
2022-12-22T20:15:00.675Z,85.83
2022-12-22T20:17:28.263Z,85.43
2022-12-22T20:19:56.592Z,86.23
2022-12-22T20:22:24.319Z,86.51
2022-12-22T20:24:54.472Z,86.38
2022-12-22T20:27:24.930Z,86.24
2022-12-22T20:29:58.201Z,85.76
2022-12-22T20:32:28.247Z,87.25
2022-12-22T20:34:56.238Z,87.42
2022-12-22T20:37:29.039Z,87.06
2022-12-22T20:40:01.278Z,87.13
2022-12-22T20:42:28.997Z,86.55
2022-12-22T20:45:03.734Z,86.39
2022-12-22T20:47:35.791Z,87.19
2022-12-22T20:50:25.930Z,86.51
2022-12-22T20:52:54.459Z,87.08
2022-12-22T20:55:25.484Z,87.61
2022-12-22T20:57:53.668Z,86.68
2022-12-22T21:00:26.263Z,86.70
2022-12-22T21:02:56.909Z,86.51
2022-12-22T21:05:24.552Z,87.26
2022-12-22T21:07:52.126Z,87.65
2022-12-22T21:10:22.452Z,87.11
2022-12-22T21:12:50.474Z,86.46
2022-12-22T21:15:24.766Z,86.49
2022-12-22T21:17:58.213Z,86.79
2022-12-22T21:20:29.069Z,86.80
2022-12-22T21:22:56.613Z,86.73
2022-12-22T21:25:25.651Z,86.59
2022-12-22T21:27:53.656Z,86.49
2022-12-22T21:30:25.273Z,86.82
2022-12-22T21:32:53.596Z,87.22
2022-12-22T21:35:24.468Z,87.04
2022-12-22T21:37:52.846Z,87.18
2022-12-22T21:40:27.690Z,87.65
2022-12-22T21:42:56.771Z,87.42
2022-12-22T21:45:30.601Z,88.65
2022-12-22T21:48:02.196Z,87.08
2022-12-22T21:50:32.293Z,87.41
2022-12-22T21:53:00.572Z,87.65
2022-12-22T21:55:31.027Z,87.64
2022-12-22T21:57:59.290Z,87.44
2022-12-22T22:00:28.950Z,87.83
2022-12-22T22:02:57.174Z,88.18
2022-12-22T22:05:33.710Z,88.21
2022-12-22T22:08:03.111Z,88.31
2022-12-22T22:10:39.038Z,88.35
2022-12-22T22:13:07.417Z,88.17
2022-12-22T22:15:35.676Z,88.60
2022-12-22T22:18:07.312Z,87.41
2022-12-22T22:20:35.687Z,88.42
2022-12-22T22:23:03.288Z,88.13
2022-12-22T22:25:30.856Z,87.63
2022-12-22T22:28:01.557Z,88.25
2022-12-22T22:30:29.182Z,88.08
2022-12-22T22:32:57.012Z,88.24
2022-12-22T22:35:27.996Z,88.59
2022-12-22T22:37:56.005Z,87.35
2022-12-22T22:40:25.250Z,88.26
2022-12-22T22:42:53.106Z,88.27
2022-12-22T22:45:23.271Z,88.05
2022-12-22T22:47:52.467Z,88.19
2022-12-22T22:50:21.306Z,87.91
2022-12-22T22:52:49.203Z,87.79
2022-12-22T22:55:16.709Z,87.75
2022-12-22T22:57:44.243Z,87.30
2022-12-22T23:00:16.330Z,87.48
2022-12-22T23:02:45.082Z,87.52
2022-12-22T23:05:20.465Z,88.28
2022-12-22T23:07:50.170Z,88.35
2022-12-22T23:10:20.060Z,87.60
2022-12-22T23:12:47.692Z,88.12
2022-12-22T23:15:15.238Z,88.04
2022-12-22T23:17:42.809Z,86.20
2022-12-22T23:20:10.573Z,88.47
2022-12-22T23:22:39.346Z,88.61
2022-12-22T23:25:07.133Z,88.23
2022-12-22T23:27:34.797Z,88.48
2022-12-22T23:30:02.279Z,88.41
2022-12-22T23:32:31.039Z,88.45
2022-12-22T23:34:58.531Z,89.02
2022-12-22T23:37:26.430Z,88.30
2022-12-22T23:39:54.603Z,89.00
2022-12-22T23:42:23.625Z,88.91
2022-12-22T23:44:51.254Z,89.31
2022-12-22T23:47:18.695Z,88.70
2022-12-22T23:49:47.459Z,88.47
2022-12-22T23:52:14.932Z,88.99
2022-12-22T23:54:42.535Z,88.29
2022-12-22T23:57:10.005Z,88.03
2022-12-22T23:59:37.865Z,88.44
